sensor_id;sensor_type;location;lat;lon;timestamp;P1;durP1;ratioP1;P2;durP2;ratioP2
49826;SDS011;35715;51.570;6.036;2023-08-30T00:01:06;10.45;;;7.70;;
49826;SDS011;35715;51.570;6.036;2023-08-30T00:03:31;9.70;;;8.15;;
49826;SDS011;35715;51.570;6.036;2023-08-30T00:06:01;8.90;;;7.43;;
49826;SDS011;35715;51.570;6.036;2023-08-30T00:08:31;13.93;;;9.57;;
49826;SDS011;35715;51.570;6.036;2023-08-30T00:10:57;9.82;;;8.55;;
49826;SDS011;35715;51.570;6.036;2023-08-30T00:13:24;10.48;;;9.07;;
49826;SDS011;35715;51.570;6.036;2023-08-30T00:15:50;9.50;;;7.05;;
49826;SDS011;35715;51.570;6.036;2023-08-30T00:18:16;11.77;;;8.60;;
49826;SDS011;35715;51.570;6.036;2023-08-30T00:20:46;8.88;;;8.02;;
49826;SDS011;35715;51.570;6.036;2023-08-30T00:23:12;11.35;;;8.02;;
49826;SDS011;35715;51.570;6.036;2023-08-30T00:25:37;9.23;;;8.25;;
49826;SDS011;35715;51.570;6.036;2023-08-30T00:28:03;9.25;;;7.18;;
49826;SDS011;35715;51.570;6.036;2023-08-30T00:30:28;8.55;;;7.78;;
49826;SDS011;35715;51.570;6.036;2023-08-30T00:32:54;9.45;;;8.13;;
49826;SDS011;35715;51.570;6.036;2023-08-30T00:35:19;9.55;;;8.57;;
49826;SDS011;35715;51.570;6.036;2023-08-30T00:37:44;9.63;;;8.70;;
49826;SDS011;35715;51.570;6.036;2023-08-30T00:40:10;9.93;;;8.02;;
49826;SDS011;35715;51.570;6.036;2023-08-30T00:42:36;17.00;;;8.45;;
49826;SDS011;35715;51.570;6.036;2023-08-30T00:45:01;8.57;;;7.78;;
49826;SDS011;35715;51.570;6.036;2023-08-30T00:47:27;9.18;;;7.63;;
49826;SDS011;35715;51.570;6.036;2023-08-30T00:49:52;14.93;;;9.90;;
49826;SDS011;35715;51.570;6.036;2023-08-30T00:52:18;8.98;;;7.78;;
49826;SDS011;35715;51.570;6.036;2023-08-30T00:54:44;10.10;;;8.85;;
49826;SDS011;35715;51.570;6.036;2023-08-30T00:57:09;10.20;;;8.77;;
49826;SDS011;35715;51.570;6.036;2023-08-30T00:59:35;9.23;;;7.97;;
49826;SDS011;35715;51.570;6.036;2023-08-30T01:02:01;13.57;;;9.45;;
49826;SDS011;35715;51.570;6.036;2023-08-30T01:04:27;9.25;;;7.90;;
49826;SDS011;35715;51.570;6.036;2023-08-30T01:06:53;9.40;;;8.52;;
49826;SDS011;35715;51.570;6.036;2023-08-30T01:09:18;10.52;;;9.45;;
49826;SDS011;35715;51.570;6.036;2023-08-30T01:14:41;12.43;;;9.82;;
49826;SDS011;35715;51.570;6.036;2023-08-30T01:17:10;13.32;;;9.88;;
49826;SDS011;35715;51.570;6.036;2023-08-30T01:27:25;11.20;;;9.50;;
49826;SDS011;35715;51.570;6.036;2023-08-30T01:29:52;10.38;;;9.38;;
49826;SDS011;35715;51.570;6.036;2023-08-30T01:32:20;9.68;;;8.80;;
49826;SDS011;35715;51.570;6.036;2023-08-30T01:34:50;11.07;;;9.35;;
49826;SDS011;35715;51.570;6.036;2023-08-30T01:37:16;10.88;;;9.98;;
49826;SDS011;35715;51.570;6.036;2023-08-30T01:39:42;9.82;;;8.95;;
49826;SDS011;35715;51.570;6.036;2023-08-30T01:42:08;9.95;;;8.75;;
49826;SDS011;35715;51.570;6.036;2023-08-30T01:44:34;17.25;;;10.75;;
49826;SDS011;35715;51.570;6.036;2023-08-30T01:47:00;13.77;;;10.70;;
49826;SDS011;35715;51.570;6.036;2023-08-30T01:49:28;10.70;;;9.68;;
49826;SDS011;35715;51.570;6.036;2023-08-30T01:51:57;11.02;;;9.95;;
49826;SDS011;35715;51.570;6.036;2023-08-30T01:54:23;12.10;;;10.80;;
49826;SDS011;35715;51.570;6.036;2023-08-30T01:56:50;10.73;;;9.73;;
49826;SDS011;35715;51.570;6.036;2023-08-30T01:59:15;10.57;;;9.57;;
49826;SDS011;35715;51.570;6.036;2023-08-30T02:01:41;12.00;;;10.07;;
49826;SDS011;35715;51.570;6.036;2023-08-30T02:04:06;13.23;;;9.80;;
49826;SDS011;35715;51.570;6.036;2023-08-30T02:06:33;10.18;;;9.27;;
49826;SDS011;35715;51.570;6.036;2023-08-30T02:09:09;13.13;;;10.73;;
49826;SDS011;35715;51.570;6.036;2023-08-30T02:11:43;10.68;;;9.75;;
49826;SDS011;35715;51.570;6.036;2023-08-30T02:14:10;12.30;;;9.57;;
49826;SDS011;35715;51.570;6.036;2023-08-30T02:16:40;23.17;;;10.15;;
49826;SDS011;35715;51.570;6.036;2023-08-30T02:19:07;10.63;;;9.55;;
49826;SDS011;35715;51.570;6.036;2023-08-30T02:21:33;15.48;;;10.57;;
49826;SDS011;35715;51.570;6.036;2023-08-30T02:24:01;10.88;;;9.55;;
49826;SDS011;35715;51.570;6.036;2023-08-30T02:26:27;10.25;;;9.25;;
49826;SDS011;35715;51.570;6.036;2023-08-30T02:28:52;12.43;;;10.45;;
49826;SDS011;35715;51.570;6.036;2023-08-30T02:31:17;9.00;;;8.05;;
49826;SDS011;35715;51.570;6.036;2023-08-30T02:33:43;18.17;;;10.82;;
49826;SDS011;35715;51.570;6.036;2023-08-30T02:36:08;10.68;;;9.57;;
49826;SDS011;35715;51.570;6.036;2023-08-30T02:38:34;11.73;;;10.52;;
49826;SDS011;35715;51.570;6.036;2023-08-30T02:40:59;11.63;;;9.10;;
49826;SDS011;35715;51.570;6.036;2023-08-30T02:43:24;15.35;;;11.85;;
49826;SDS011;35715;51.570;6.036;2023-08-30T02:45:50;11.90;;;9.98;;
49826;SDS011;35715;51.570;6.036;2023-08-30T02:48:17;10.38;;;9.32;;
49826;SDS011;35715;51.570;6.036;2023-08-30T02:50:42;10.75;;;9.63;;
49826;SDS011;35715;51.570;6.036;2023-08-30T02:53:08;15.45;;;9.70;;
49826;SDS011;35715;51.570;6.036;2023-08-30T02:55:33;14.50;;;10.23;;
49826;SDS011;35715;51.570;6.036;2023-08-30T02:57:59;9.98;;;8.93;;
49826;SDS011;35715;51.570;6.036;2023-08-30T03:00:25;12.95;;;9.95;;
49826;SDS011;35715;51.570;6.036;2023-08-30T03:02:50;15.02;;;10.85;;
49826;SDS011;35715;51.570;6.036;2023-08-30T03:05:15;10.88;;;9.10;;
49826;SDS011;35715;51.570;6.036;2023-08-30T03:07:41;9.75;;;8.82;;
49826;SDS011;35715;51.570;6.036;2023-08-30T03:10:07;14.35;;;12.43;;
49826;SDS011;35715;51.570;6.036;2023-08-30T03:12:33;11.00;;;9.45;;
49826;SDS011;35715;51.570;6.036;2023-08-30T03:14:58;11.02;;;9.77;;
49826;SDS011;35715;51.570;6.036;2023-08-30T03:17:26;12.82;;;11.43;;
49826;SDS011;35715;51.570;6.036;2023-08-30T03:19:52;12.50;;;11.20;;
49826;SDS011;35715;51.570;6.036;2023-08-30T03:22:20;19.00;;;11.40;;
49826;SDS011;35715;51.570;6.036;2023-08-30T03:24:46;13.13;;;11.63;;
49826;SDS011;35715;51.570;6.036;2023-08-30T03:27:11;11.27;;;10.10;;
49826;SDS011;35715;51.570;6.036;2023-08-30T03:29:37;11.02;;;9.88;;
49826;SDS011;35715;51.570;6.036;2023-08-30T03:32:03;11.40;;;10.18;;
49826;SDS011;35715;51.570;6.036;2023-08-30T03:34:28;12.68;;;10.75;;
49826;SDS011;35715;51.570;6.036;2023-08-30T03:36:54;12.98;;;10.88;;
49826;SDS011;35715;51.570;6.036;2023-08-30T03:39:20;26.13;;;11.65;;
49826;SDS011;35715;51.570;6.036;2023-08-30T03:41:46;14.43;;;10.20;;
49826;SDS011;35715;51.570;6.036;2023-08-30T03:44:11;11.27;;;10.18;;
49826;SDS011;35715;51.570;6.036;2023-08-30T03:46:37;19.55;;;12.60;;
49826;SDS011;35715;51.570;6.036;2023-08-30T03:49:02;10.77;;;9.68;;
49826;SDS011;35715;51.570;6.036;2023-08-30T03:51:28;12.23;;;11.15;;
49826;SDS011;35715;51.570;6.036;2023-08-30T03:53:54;19.52;;;12.32;;
49826;SDS011;35715;51.570;6.036;2023-08-30T03:56:21;11.52;;;10.43;;
49826;SDS011;35715;51.570;6.036;2023-08-30T03:58:46;15.35;;;10.93;;
49826;SDS011;35715;51.570;6.036;2023-08-30T04:01:12;13.60;;;10.95;;
49826;SDS011;35715;51.570;6.036;2023-08-30T04:03:37;10.80;;;9.80;;
49826;SDS011;35715;51.570;6.036;2023-08-30T04:06:03;12.65;;;10.38;;
49826;SDS011;35715;51.570;6.036;2023-08-30T04:08:28;12.60;;;11.02;;
49826;SDS011;35715;51.570;6.036;2023-08-30T04:10:53;21.63;;;10.82;;
49826;SDS011;35715;51.570;6.036;2023-08-30T04:13:19;16.42;;;12.52;;
49826;SDS011;35715;51.570;6.036;2023-08-30T04:15:44;10.23;;;9.23;;
49826;SDS011;35715;51.570;6.036;2023-08-30T04:18:10;14.10;;;10.43;;
49826;SDS011;35715;51.570;6.036;2023-08-30T04:20:35;13.73;;;9.65;;
49826;SDS011;35715;51.570;6.036;2023-08-30T04:23:01;13.40;;;11.95;;
49826;SDS011;35715;51.570;6.036;2023-08-30T04:25:27;12.15;;;10.82;;
49826;SDS011;35715;51.570;6.036;2023-08-30T04:27:53;13.98;;;12.65;;
49826;SDS011;35715;51.570;6.036;2023-08-30T04:30:19;16.95;;;10.70;;
49826;SDS011;35715;51.570;6.036;2023-08-30T04:32:44;16.67;;;12.10;;
49826;SDS011;35715;51.570;6.036;2023-08-30T04:35:10;16.67;;;11.38;;
49826;SDS011;35715;51.570;6.036;2023-08-30T04:37:36;23.88;;;13.10;;
49826;SDS011;35715;51.570;6.036;2023-08-30T04:40:03;14.75;;;12.70;;
49826;SDS011;35715;51.570;6.036;2023-08-30T04:42:29;16.20;;;14.45;;
49826;SDS011;35715;51.570;6.036;2023-08-30T04:44:54;21.15;;;14.35;;
49826;SDS011;35715;51.570;6.036;2023-08-30T04:47:21;22.10;;;14.38;;
49826;SDS011;35715;51.570;6.036;2023-08-30T04:49:53;15.88;;;14.32;;
49826;SDS011;35715;51.570;6.036;2023-08-30T04:52:18;21.17;;;16.02;;
49826;SDS011;35715;51.570;6.036;2023-08-30T04:54:44;17.92;;;14.50;;
49826;SDS011;35715;51.570;6.036;2023-08-30T04:57:10;15.27;;;13.85;;
49826;SDS011;35715;51.570;6.036;2023-08-30T04:59:39;18.15;;;15.13;;
49826;SDS011;35715;51.570;6.036;2023-08-30T05:02:16;19.58;;;15.48;;
49826;SDS011;35715;51.570;6.036;2023-08-30T05:04:41;20.10;;;16.58;;
49826;SDS011;35715;51.570;6.036;2023-08-30T05:07:07;15.90;;;14.40;;
49826;SDS011;35715;51.570;6.036;2023-08-30T05:09:32;18.10;;;14.93;;
49826;SDS011;35715;51.570;6.036;2023-08-30T05:11:59;19.02;;;17.17;;
49826;SDS011;35715;51.570;6.036;2023-08-30T05:14:24;22.13;;;15.57;;
49826;SDS011;35715;51.570;6.036;2023-08-30T05:16:50;18.08;;;16.27;;
49826;SDS011;35715;51.570;6.036;2023-08-30T05:19:15;25.13;;;15.30;;
49826;SDS011;35715;51.570;6.036;2023-08-30T05:21:44;18.30;;;15.57;;
49826;SDS011;35715;51.570;6.036;2023-08-30T05:24:09;23.23;;;18.05;;
49826;SDS011;35715;51.570;6.036;2023-08-30T05:26:35;17.88;;;15.63;;
49826;SDS011;35715;51.570;6.036;2023-08-30T05:29:00;22.65;;;16.98;;
49826;SDS011;35715;51.570;6.036;2023-08-30T05:31:29;18.73;;;16.85;;
49826;SDS011;35715;51.570;6.036;2023-08-30T05:33:54;21.42;;;18.15;;
49826;SDS011;35715;51.570;6.036;2023-08-30T05:36:19;20.23;;;15.88;;
49826;SDS011;35715;51.570;6.036;2023-08-30T05:38:45;19.42;;;17.27;;
49826;SDS011;35715;51.570;6.036;2023-08-30T05:41:10;25.13;;;15.55;;
49826;SDS011;35715;51.570;6.036;2023-08-30T05:43:35;17.63;;;15.77;;
49826;SDS011;35715;51.570;6.036;2023-08-30T05:46:01;20.48;;;18.33;;
49826;SDS011;35715;51.570;6.036;2023-08-30T05:48:27;19.67;;;17.65;;
49826;SDS011;35715;51.570;6.036;2023-08-30T05:50:59;21.10;;;15.68;;
49826;SDS011;35715;51.570;6.036;2023-08-30T05:53:24;22.15;;;17.48;;
49826;SDS011;35715;51.570;6.036;2023-08-30T05:55:50;20.73;;;17.10;;
49826;SDS011;35715;51.570;6.036;2023-08-30T05:58:15;16.95;;;15.27;;
49826;SDS011;35715;51.570;6.036;2023-08-30T06:00:42;20.55;;;17.98;;
49826;SDS011;35715;51.570;6.036;2023-08-30T06:03:07;17.38;;;15.43;;
49826;SDS011;35715;51.570;6.036;2023-08-30T06:05:33;19.42;;;15.93;;
49826;SDS011;35715;51.570;6.036;2023-08-30T06:07:59;17.50;;;15.68;;
49826;SDS011;35715;51.570;6.036;2023-08-30T06:10:24;18.65;;;16.58;;
49826;SDS011;35715;51.570;6.036;2023-08-30T06:12:49;20.58;;;18.15;;
49826;SDS011;35715;51.570;6.036;2023-08-30T06:15:15;18.08;;;16.20;;
49826;SDS011;35715;51.570;6.036;2023-08-30T06:17:40;19.27;;;17.30;;
49826;SDS011;35715;51.570;6.036;2023-08-30T06:20:06;19.95;;;15.88;;
49826;SDS011;35715;51.570;6.036;2023-08-30T06:22:31;20.88;;;18.20;;
49826;SDS011;35715;51.570;6.036;2023-08-30T06:24:57;18.73;;;16.75;;
49826;SDS011;35715;51.570;6.036;2023-08-30T06:27:25;18.63;;;16.38;;
49826;SDS011;35715;51.570;6.036;2023-08-30T06:29:50;21.15;;;17.40;;
49826;SDS011;35715;51.570;6.036;2023-08-30T06:32:16;18.15;;;16.45;;
49826;SDS011;35715;51.570;6.036;2023-08-30T06:34:42;28.75;;;19.50;;
49826;SDS011;35715;51.570;6.036;2023-08-30T06:37:07;22.08;;;18.00;;
49826;SDS011;35715;51.570;6.036;2023-08-30T06:39:33;21.67;;;19.48;;
49826;SDS011;35715;51.570;6.036;2023-08-30T06:42:00;21.83;;;17.88;;
49826;SDS011;35715;51.570;6.036;2023-08-30T06:44:26;20.35;;;18.35;;
49826;SDS011;35715;51.570;6.036;2023-08-30T06:46:52;19.33;;;17.50;;
49826;SDS011;35715;51.570;6.036;2023-08-30T06:49:17;19.85;;;17.92;;
49826;SDS011;35715;51.570;6.036;2023-08-30T06:51:42;17.05;;;14.90;;
49826;SDS011;35715;51.570;6.036;2023-08-30T06:54:08;24.30;;;17.67;;
49826;SDS011;35715;51.570;6.036;2023-08-30T06:56:33;17.88;;;15.95;;
49826;SDS011;35715;51.570;6.036;2023-08-30T06:58:58;31.73;;;18.80;;
49826;SDS011;35715;51.570;6.036;2023-08-30T07:01:24;20.70;;;17.10;;
49826;SDS011;35715;51.570;6.036;2023-08-30T07:03:49;17.80;;;15.90;;
49826;SDS011;35715;51.570;6.036;2023-08-30T07:06:15;20.13;;;17.88;;
49826;SDS011;35715;51.570;6.036;2023-08-30T07:08:40;19.13;;;17.27;;
49826;SDS011;35715;51.570;6.036;2023-08-30T07:11:05;20.40;;;16.02;;
49826;SDS011;35715;51.570;6.036;2023-08-30T07:13:31;18.80;;;17.00;;
49826;SDS011;35715;51.570;6.036;2023-08-30T07:15:56;18.23;;;16.33;;
49826;SDS011;35715;51.570;6.036;2023-08-30T07:18:21;27.20;;;18.00;;
49826;SDS011;35715;51.570;6.036;2023-08-30T07:20:47;22.65;;;17.73;;
49826;SDS011;35715;51.570;6.036;2023-08-30T07:23:12;17.50;;;15.73;;
49826;SDS011;35715;51.570;6.036;2023-08-30T07:25:38;24.23;;;16.30;;
49826;SDS011;35715;51.570;6.036;2023-08-30T07:28:06;19.10;;;17.13;;
49826;SDS011;35715;51.570;6.036;2023-08-30T07:30:32;23.00;;;17.95;;
49826;SDS011;35715;51.570;6.036;2023-08-30T07:32:57;19.38;;;17.58;;
49826;SDS011;35715;51.570;6.036;2023-08-30T07:35:23;20.15;;;17.02;;
49826;SDS011;35715;51.570;6.036;2023-08-30T07:37:48;18.48;;;16.67;;
49826;SDS011;35715;51.570;6.036;2023-08-30T07:40:14;18.90;;;16.95;;
49826;SDS011;35715;51.570;6.036;2023-08-30T07:42:39;19.77;;;17.55;;
49826;SDS011;35715;51.570;6.036;2023-08-30T07:45:05;20.77;;;16.58;;
49826;SDS011;35715;51.570;6.036;2023-08-30T07:47:30;17.10;;;15.23;;
49826;SDS011;35715;51.570;6.036;2023-08-30T07:49:56;19.48;;;15.52;;
49826;SDS011;35715;51.570;6.036;2023-08-30T07:52:21;20.70;;;16.15;;
49826;SDS011;35715;51.570;6.036;2023-08-30T07:54:47;22.85;;;16.65;;
49826;SDS011;35715;51.570;6.036;2023-08-30T07:57:12;18.02;;;16.27;;
49826;SDS011;35715;51.570;6.036;2023-08-30T07:59:38;19.20;;;15.23;;
49826;SDS011;35715;51.570;6.036;2023-08-30T08:02:04;20.35;;;15.45;;
49826;SDS011;35715;51.570;6.036;2023-08-30T08:04:31;17.48;;;15.75;;
49826;SDS011;35715;51.570;6.036;2023-08-30T08:06:57;17.40;;;15.45;;
49826;SDS011;35715;51.570;6.036;2023-08-30T08:09:23;19.52;;;15.75;;
49826;SDS011;35715;51.570;6.036;2023-08-30T08:11:48;16.10;;;14.48;;
49826;SDS011;35715;51.570;6.036;2023-08-30T08:14:14;21.80;;;15.25;;
49826;SDS011;35715;51.570;6.036;2023-08-30T08:16:39;15.80;;;14.02;;
49826;SDS011;35715;51.570;6.036;2023-08-30T08:19:05;15.95;;;14.23;;
49826;SDS011;35715;51.570;6.036;2023-08-30T08:21:32;16.20;;;12.98;;
49826;SDS011;35715;51.570;6.036;2023-08-30T08:23:58;18.95;;;13.93;;
49826;SDS011;35715;51.570;6.036;2023-08-30T08:26:23;14.98;;;13.48;;
49826;SDS011;35715;51.570;6.036;2023-08-30T08:28:50;18.83;;;13.02;;
49826;SDS011;35715;51.570;6.036;2023-08-30T08:31:15;14.85;;;13.23;;
49826;SDS011;35715;51.570;6.036;2023-08-30T08:33:40;13.85;;;12.15;;
49826;SDS011;35715;51.570;6.036;2023-08-30T08:36:06;15.70;;;13.55;;
49826;SDS011;35715;51.570;6.036;2023-08-30T08:38:31;11.80;;;10.63;;
49826;SDS011;35715;51.570;6.036;2023-08-30T08:41:04;14.93;;;12.55;;
49826;SDS011;35715;51.570;6.036;2023-08-30T08:43:32;14.18;;;12.05;;
49826;SDS011;35715;51.570;6.036;2023-08-30T08:46:01;11.57;;;9.93;;
49826;SDS011;35715;51.570;6.036;2023-08-30T08:48:28;11.88;;;10.80;;
49826;SDS011;35715;51.570;6.036;2023-08-30T08:50:55;13.27;;;10.30;;
49826;SDS011;35715;51.570;6.036;2023-08-30T08:53:22;15.77;;;12.25;;
49826;SDS011;35715;51.570;6.036;2023-08-30T08:55:48;11.98;;;10.77;;
49826;SDS011;35715;51.570;6.036;2023-08-30T08:58:14;10.95;;;9.65;;
49826;SDS011;35715;51.570;6.036;2023-08-30T09:00:41;11.27;;;10.18;;
49826;SDS011;35715;51.570;6.036;2023-08-30T09:03:08;11.60;;;10.45;;
49826;SDS011;35715;51.570;6.036;2023-08-30T09:05:33;12.95;;;9.70;;
49826;SDS011;35715;51.570;6.036;2023-08-30T09:08:02;11.77;;;8.73;;
49826;SDS011;35715;51.570;6.036;2023-08-30T09:10:31;9.98;;;8.98;;
49826;SDS011;35715;51.570;6.036;2023-08-30T09:13:00;13.05;;;8.88;;
49826;SDS011;35715;51.570;6.036;2023-08-30T09:15:32;14.05;;;8.18;;
49826;SDS011;35715;51.570;6.036;2023-08-30T09:17:57;10.15;;;7.50;;
49826;SDS011;35715;51.570;6.036;2023-08-30T09:20:23;8.50;;;7.60;;
49826;SDS011;35715;51.570;6.036;2023-08-30T09:22:48;10.25;;;6.82;;
49826;SDS011;35715;51.570;6.036;2023-08-30T09:25:25;8.93;;;7.35;;
49826;SDS011;35715;51.570;6.036;2023-08-30T09:27:57;12.35;;;6.80;;
49826;SDS011;35715;51.570;6.036;2023-08-30T09:30:24;10.85;;;6.43;;
49826;SDS011;35715;51.570;6.036;2023-08-30T09:32:50;9.07;;;7.53;;
49826;SDS011;35715;51.570;6.036;2023-08-30T09:35:16;7.30;;;6.68;;
49826;SDS011;35715;51.570;6.036;2023-08-30T09:37:44;9.80;;;5.57;;
49826;SDS011;35715;51.570;6.036;2023-08-30T09:40:10;7.25;;;5.88;;
49826;SDS011;35715;51.570;6.036;2023-08-30T09:42:40;7.70;;;6.93;;
49826;SDS011;35715;51.570;6.036;2023-08-30T09:45:16;5.93;;;4.97;;
49826;SDS011;35715;51.570;6.036;2023-08-30T09:47:51;6.72;;;5.60;;
49826;SDS011;35715;51.570;6.036;2023-08-30T09:50:20;7.28;;;6.18;;
49826;SDS011;35715;51.570;6.036;2023-08-30T09:52:49;11.63;;;7.00;;
49826;SDS011;35715;51.570;6.036;2023-08-30T09:55:15;8.82;;;7.00;;
49826;SDS011;35715;51.570;6.036;2023-08-30T09:57:44;6.03;;;5.53;;
49826;SDS011;35715;51.570;6.036;2023-08-30T10:00:10;5.70;;;5.20;;
49826;SDS011;35715;51.570;6.036;2023-08-30T10:02:39;8.70;;;6.90;;
49826;SDS011;35715;51.570;6.036;2023-08-30T10:05:08;5.97;;;5.38;;
49826;SDS011;35715;51.570;6.036;2023-08-30T10:07:38;6.38;;;5.88;;
49826;SDS011;35715;51.570;6.036;2023-08-30T10:10:08;6.55;;;5.95;;
49826;SDS011;35715;51.570;6.036;2023-08-30T10:12:35;6.93;;;6.35;;
49826;SDS011;35715;51.570;6.036;2023-08-30T10:15:01;7.15;;;6.03;;
49826;SDS011;35715;51.570;6.036;2023-08-30T10:17:28;8.80;;;6.90;;
49826;SDS011;35715;51.570;6.036;2023-08-30T10:19:58;6.32;;;5.82;;
49826;SDS011;35715;51.570;6.036;2023-08-30T10:22:24;6.68;;;5.93;;
49826;SDS011;35715;51.570;6.036;2023-08-30T10:27:25;6.43;;;5.93;;
49826;SDS011;35715;51.570;6.036;2023-08-30T10:29:52;6.38;;;5.75;;
49826;SDS011;35715;51.570;6.036;2023-08-30T10:32:19;6.00;;;5.60;;
49826;SDS011;35715;51.570;6.036;2023-08-30T10:34:47;6.38;;;5.80;;
49826;SDS011;35715;51.570;6.036;2023-08-30T10:37:14;5.78;;;5.35;;
49826;SDS011;35715;51.570;6.036;2023-08-30T10:39:41;6.00;;;5.50;;
49826;SDS011;35715;51.570;6.036;2023-08-30T10:42:13;5.57;;;5.18;;
49826;SDS011;35715;51.570;6.036;2023-08-30T10:47:35;5.60;;;5.20;;
49826;SDS011;35715;51.570;6.036;2023-08-30T10:50:09;6.22;;;5.72;;
49826;SDS011;35715;51.570;6.036;2023-08-30T10:52:35;7.75;;;5.75;;
49826;SDS011;35715;51.570;6.036;2023-08-30T10:55:11;6.15;;;5.65;;
49826;SDS011;35715;51.570;6.036;2023-08-30T10:57:43;6.65;;;5.95;;
49826;SDS011;35715;51.570;6.036;2023-08-30T11:00:19;5.50;;;4.97;;
49826;SDS011;35715;51.570;6.036;2023-08-30T11:02:47;5.28;;;4.97;;
49826;SDS011;35715;51.570;6.036;2023-08-30T11:05:17;6.00;;;5.40;;
49826;SDS011;35715;51.570;6.036;2023-08-30T11:07:44;8.85;;;5.13;;
49826;SDS011;35715;51.570;6.036;2023-08-30T11:10:10;5.82;;;5.40;;
49826;SDS011;35715;51.570;6.036;2023-08-30T11:12:36;4.75;;;4.38;;
49826;SDS011;35715;51.570;6.036;2023-08-30T11:15:02;5.70;;;5.30;;
49826;SDS011;35715;51.570;6.036;2023-08-30T11:17:28;6.65;;;5.32;;
49826;SDS011;35715;51.570;6.036;2023-08-30T11:19:57;6.28;;;5.78;;
49826;SDS011;35715;51.570;6.036;2023-08-30T11:22:29;5.93;;;5.05;;
49826;SDS011;35715;51.570;6.036;2023-08-30T11:24:55;7.55;;;6.13;;
49826;SDS011;35715;51.570;6.036;2023-08-30T11:27:20;5.38;;;4.97;;
49826;SDS011;35715;51.570;6.036;2023-08-30T11:29:46;5.70;;;5.22;;
49826;SDS011;35715;51.570;6.036;2023-08-30T11:32:11;5.70;;;5.30;;
49826;SDS011;35715;51.570;6.036;2023-08-30T11:34:36;5.50;;;4.95;;
49826;SDS011;35715;51.570;6.036;2023-08-30T11:37:02;5.05;;;4.75;;
49826;SDS011;35715;51.570;6.036;2023-08-30T11:39:28;5.25;;;4.75;;
49826;SDS011;35715;51.570;6.036;2023-08-30T11:41:54;5.65;;;5.30;;
49826;SDS011;35715;51.570;6.036;2023-08-30T11:44:19;6.97;;;5.15;;
49826;SDS011;35715;51.570;6.036;2023-08-30T11:46:45;5.55;;;5.10;;
49826;SDS011;35715;51.570;6.036;2023-08-30T11:49:11;7.38;;;5.55;;
49826;SDS011;35715;51.570;6.036;2023-08-30T11:51:37;5.30;;;4.95;;
49826;SDS011;35715;51.570;6.036;2023-08-30T11:54:03;5.82;;;5.32;;
49826;SDS011;35715;51.570;6.036;2023-08-30T11:56:29;6.45;;;5.97;;
49826;SDS011;35715;51.570;6.036;2023-08-30T11:58:54;5.82;;;5.32;;
49826;SDS011;35715;51.570;6.036;2023-08-30T12:01:23;5.45;;;4.97;;
49826;SDS011;35715;51.570;6.036;2023-08-30T12:03:48;6.15;;;5.55;;
49826;SDS011;35715;51.570;6.036;2023-08-30T12:06:16;6.18;;;5.60;;
49826;SDS011;35715;51.570;6.036;2023-08-30T12:08:42;5.65;;;5.15;;
49826;SDS011;35715;51.570;6.036;2023-08-30T12:11:17;12.93;;;5.82;;
49826;SDS011;35715;51.570;6.036;2023-08-30T12:13:45;7.05;;;5.47;;
49826;SDS011;35715;51.570;6.036;2023-08-30T12:16:16;6.13;;;5.63;;
49826;SDS011;35715;51.570;6.036;2023-08-30T12:21:07;6.70;;;6.15;;
49826;SDS011;35715;51.570;6.036;2023-08-30T12:23:33;6.93;;;6.43;;
49826;SDS011;35715;51.570;6.036;2023-08-30T12:28:28;10.65;;;7.22;;
49826;SDS011;35715;51.570;6.036;2023-08-30T12:30:55;9.90;;;9.10;;
49826;SDS011;35715;51.570;6.036;2023-08-30T12:33:21;6.28;;;5.63;;
49826;SDS011;35715;51.570;6.036;2023-08-30T12:35:46;7.35;;;6.15;;
49826;SDS011;35715;51.570;6.036;2023-08-30T12:38:12;7.45;;;6.35;;
49826;SDS011;35715;51.570;6.036;2023-08-30T12:40:42;6.75;;;6.15;;
49826;SDS011;35715;51.570;6.036;2023-08-30T12:43:08;7.63;;;6.00;;
49826;SDS011;35715;51.570;6.036;2023-08-30T12:45:33;12.55;;;6.82;;
49826;SDS011;35715;51.570;6.036;2023-08-30T12:47:58;6.70;;;5.45;;
49826;SDS011;35715;51.570;6.036;2023-08-30T12:50:24;6.95;;;4.75;;
49826;SDS011;35715;51.570;6.036;2023-08-30T12:52:49;10.23;;;6.00;;
49826;SDS011;35715;51.570;6.036;2023-08-30T12:55:15;7.25;;;5.38;;
49826;SDS011;35715;51.570;6.036;2023-08-30T12:57:42;7.20;;;4.85;;
49826;SDS011;35715;51.570;6.036;2023-08-30T13:00:09;4.80;;;4.38;;
49826;SDS011;35715;51.570;6.036;2023-08-30T13:02:35;6.03;;;4.68;;
49826;SDS011;35715;51.570;6.036;2023-08-30T13:05:00;7.15;;;5.10;;
49826;SDS011;35715;51.570;6.036;2023-08-30T13:07:26;8.57;;;3.80;;
49826;SDS011;35715;51.570;6.036;2023-08-30T13:09:51;9.45;;;4.88;;
49826;SDS011;35715;51.570;6.036;2023-08-30T13:12:17;11.82;;;3.63;;
49826;SDS011;35715;51.570;6.036;2023-08-30T13:14:42;8.68;;;3.38;;
49826;SDS011;35715;51.570;6.036;2023-08-30T13:17:07;5.95;;;3.03;;
49826;SDS011;35715;51.570;6.036;2023-08-30T13:19:33;9.80;;;4.00;;
49826;SDS011;35715;51.570;6.036;2023-08-30T13:21:58;7.90;;;3.30;;
49826;SDS011;35715;51.570;6.036;2023-08-30T13:24:24;10.40;;;3.53;;
49826;SDS011;35715;51.570;6.036;2023-08-30T13:26:49;7.53;;;3.28;;
49826;SDS011;35715;51.570;6.036;2023-08-30T13:29:14;5.63;;;2.72;;
49826;SDS011;35715;51.570;6.036;2023-08-30T13:31:40;9.75;;;3.22;;
49826;SDS011;35715;51.570;6.036;2023-08-30T13:34:05;8.38;;;3.20;;
49826;SDS011;35715;51.570;6.036;2023-08-30T13:36:31;7.35;;;3.15;;
49826;SDS011;35715;51.570;6.036;2023-08-30T13:38:56;10.70;;;3.03;;
49826;SDS011;35715;51.570;6.036;2023-08-30T13:41:21;6.30;;;3.60;;
49826;SDS011;35715;51.570;6.036;2023-08-30T13:43:47;4.20;;;2.90;;
49826;SDS011;35715;51.570;6.036;2023-08-30T13:46:12;7.68;;;3.28;;
49826;SDS011;35715;51.570;6.036;2023-08-30T13:48:38;10.98;;;3.58;;
49826;SDS011;35715;51.570;6.036;2023-08-30T13:51:03;8.85;;;3.13;;
49826;SDS011;35715;51.570;6.036;2023-08-30T13:53:28;8.15;;;2.75;;
49826;SDS011;35715;51.570;6.036;2023-08-30T13:55:54;7.78;;;3.35;;
49826;SDS011;35715;51.570;6.036;2023-08-30T13:58:19;7.93;;;2.28;;
49826;SDS011;35715;51.570;6.036;2023-08-30T14:00:44;6.00;;;2.60;;
49826;SDS011;35715;51.570;6.036;2023-08-30T14:03:10;4.75;;;2.70;;
49826;SDS011;35715;51.570;6.036;2023-08-30T14:05:35;5.25;;;3.15;;
49826;SDS011;35715;51.570;6.036;2023-08-30T14:08:01;8.80;;;2.72;;
49826;SDS011;35715;51.570;6.036;2023-08-30T14:10:26;6.55;;;3.90;;
49826;SDS011;35715;51.570;6.036;2023-08-30T14:12:53;7.35;;;3.38;;
49826;SDS011;35715;51.570;6.036;2023-08-30T14:15:19;7.50;;;3.90;;
49826;SDS011;35715;51.570;6.036;2023-08-30T14:17:44;7.70;;;2.78;;
49826;SDS011;35715;51.570;6.036;2023-08-30T14:20:09;7.35;;;3.22;;
49826;SDS011;35715;51.570;6.036;2023-08-30T14:22:35;9.05;;;3.08;;
49826;SDS011;35715;51.570;6.036;2023-08-30T14:25:01;7.53;;;2.92;;
49826;SDS011;35715;51.570;6.036;2023-08-30T14:27:28;6.93;;;3.38;;
49826;SDS011;35715;51.570;6.036;2023-08-30T14:29:53;6.65;;;2.65;;
49826;SDS011;35715;51.570;6.036;2023-08-30T14:32:18;3.58;;;2.45;;
49826;SDS011;35715;51.570;6.036;2023-08-30T14:34:46;3.67;;;2.47;;
49826;SDS011;35715;51.570;6.036;2023-08-30T14:37:11;6.00;;;2.42;;
49826;SDS011;35715;51.570;6.036;2023-08-30T14:39:37;2.78;;;1.70;;
49826;SDS011;35715;51.570;6.036;2023-08-30T14:42:02;4.93;;;2.22;;
49826;SDS011;35715;51.570;6.036;2023-08-30T14:44:28;4.35;;;1.83;;
49826;SDS011;35715;51.570;6.036;2023-08-30T14:46:53;9.07;;;2.58;;
49826;SDS011;35715;51.570;6.036;2023-08-30T14:49:18;6.60;;;2.50;;